Time;durP1;ratioP1;P1;durP2;ratioP2;P2;SDS_P1;SDS_P2;PMS_P1;PMS_P2;Temp;Humidity;BMP_temperature;BMP_pressure;BME280_temperature;BME280_humidity;BME280_pressure;Samples;Min_cycle;Max_cycle;Signal;HPM_P1;HPM_P2
2024/01/23 00:00:48;;;;;;;21.73;3.88;;;6.20;99.90;;;;;;5113979;28;20086;-85
2024/01/23 00:03:13;;;;;;;23.35;3.25;;;7.70;99.90;;;;;;5114277;28;20492;-85
2024/01/23 00:05:39;;;;;;;24.83;3.22;;;6.80;99.90;;;;;;5115272;27;20036;-84
2024/01/23 00:08:05;;;;;;;24.42;3.35;;;7.20;99.90;;;;;;5096677;28;20054;-86
2024/01/23 00:10:31;;;;;;;18.60;2.88;;;6.10;99.90;;;;;;5113686;28;20027;-85
2024/01/23 00:12:56;;;;;;;20.50;2.65;;;6.90;99.90;;;;;;5113843;28;20442;-85
2024/01/23 00:15:22;;;;;;;25.92;2.63;;;6.40;99.90;;;;;;5113152;28;20126;-86
2024/01/23 00:17:48;;;;;;;21.58;3.63;;;6.90;99.90;;;;;;5113597;28;20134;-85
2024/01/23 00:20:14;;;;;;;21.70;3.08;;;5.90;99.90;;;;;;5113453;28;20055;-85
2024/01/23 00:22:39;;;;;;;20.35;2.85;;;5.90;99.90;;;;;;5113285;28;20049;-85
2024/01/23 00:25:05;;;;;;;30.10;3.55;;;6.50;99.90;;;;;;5112330;28;20051;-85
2024/01/23 00:27:31;;;;;;;17.30;2.95;;;6.00;99.90;;;;;;5113340;28;20096;-85
2024/01/23 00:29:57;;;;;;;18.08;3.22;;;5.80;99.90;;;;;;5114407;28;20045;-84
2024/01/23 00:32:25;;;;;;;23.35;3.10;;;6.60;99.90;;;;;;5096613;28;20090;-85
2024/01/23 00:34:50;;;;;;;22.45;3.33;;;5.90;99.90;;;;;;5113980;28;20044;-85
2024/01/23 00:37:16;;;;;;;19.77;2.80;;;6.60;99.90;;;;;;5113193;28;20039;-84
2024/01/23 00:39:42;;;;;;;23.92;2.80;;;5.80;99.90;;;;;;5114575;28;20465;-85
2024/01/23 00:42:08;;;;;;;19.80;2.95;;;6.00;99.90;;;;;;5112353;28;20042;-85
2024/01/23 00:44:34;;;;;;;23.38;2.30;;;7.20;99.90;;;;;;5095660;28;20080;-84
2024/01/23 00:47:00;;;;;;;23.40;3.00;;;5.80;99.90;;;;;;5111586;28;20050;-85
2024/01/23 00:49:26;;;;;;;18.13;2.60;;;5.80;99.90;;;;;;5096663;28;20039;-86
2024/01/23 00:51:52;;;;;;;18.63;2.90;;;7.20;99.90;;;;;;5114543;28;20549;-85
2024/01/23 00:54:17;;;;;;;21.95;2.45;;;6.80;99.90;;;;;;5114415;28;20089;-86
2024/01/23 00:56:43;;;;;;;25.17;2.97;;;5.90;99.90;;;;;;5112483;28;20036;-86
2024/01/23 00:59:11;;;;;;;20.98;2.95;;;5.70;99.90;;;;;;5096078;28;20035;-86
2024/01/23 01:01:37;;;;;;;30.58;3.92;;;6.70;99.90;;;;;;5096105;28;20086;-86
2024/01/23 01:04:03;;;;;;;21.10;3.78;;;6.90;99.90;;;;;;5112832;28;20412;-86
2024/01/23 01:06:29;;;;;;;17.02;3.08;;;5.80;99.90;;;;;;5112780;28;20038;-87
2024/01/23 01:08:55;;;;;;;20.77;2.97;;;5.60;99.90;;;;;;5113971;28;20408;-85
2024/01/23 01:11:21;;;;;;;19.40;2.58;;;6.60;99.90;;;;;;5112766;28;20058;-85
2024/01/23 01:13:46;;;;;;;27.13;4.00;;;5.90;99.90;;;;;;5114248;28;20036;-86
2024/01/23 01:16:12;;;;;;;17.55;3.58;;;5.70;99.90;;;;;;5112979;28;20071;-87
2024/01/23 01:18:40;;;;;;;20.60;2.90;;;6.70;99.90;;;;;;5112562;28;20036;-85
2024/01/23 01:21:08;;;;;;;22.38;2.95;;;6.50;99.90;;;;;;5114028;28;20039;-86
2024/01/23 01:23:35;;;;;;;19.98;3.83;;;6.90;99.90;;;;;;5095694;28;20050;-86
2024/01/23 01:26:01;;;;;;;18.17;2.92;;;6.20;99.90;;;;;;5111655;28;20048;-86
2024/01/23 01:28:27;;;;;;;23.90;3.22;;;6.50;99.90;;;;;;5112684;28;20404;-86
2024/01/23 01:30:53;;;;;;;18.20;2.47;;;5.10;99.90;;;;;;5112308;28;20114;-85
2024/01/23 01:33:19;;;;;;;23.45;3.08;;;6.50;99.90;;;;;;5129141;27;20470;-86
2024/01/23 01:35:45;;;;;;;25.00;2.97;;;7.10;99.90;;;;;;5112956;28;20035;-86
2024/01/23 01:38:10;;;;;;;18.15;2.90;;;6.70;99.90;;;;;;5113612;28;20499;-86
2024/01/23 01:40:36;;;;;;;23.45;3.60;;;5.40;99.90;;;;;;5112960;28;20067;-84
2024/01/23 01:43:02;;;;;;;24.58;3.35;;;6.70;99.90;;;;;;5113594;28;20039;-86
2024/01/23 01:45:28;;;;;;;22.95;3.05;;;5.50;99.90;;;;;;5095014;28;20048;-85
2024/01/23 01:47:54;;;;;;;18.15;2.70;;;6.80;99.90;;;;;;5113430;28;20040;-85
2024/01/23 01:50:20;;;;;;;28.20;2.75;;;5.30;99.90;;;;;;5112140;28;20047;-86
2024/01/23 01:52:46;;;;;;;23.50;3.47;;;7.20;99.90;;;;;;5113527;28;20127;-86
2024/01/23 01:55:12;;;;;;;19.73;3.63;;;5.70;99.90;;;;;;5113447;28;20044;-88
2024/01/23 01:57:40;;;;;;;26.25;3.58;;;5.40;99.90;;;;;;5112071;28;20085;-86
2024/01/23 02:00:07;;;;;;;19.35;2.45;;;6.40;99.90;;;;;;5112237;28;20082;-87
2024/01/23 02:02:33;;;;;;;23.23;4.10;;;5.40;99.90;;;;;;5112512;28;20456;-85
2024/01/23 02:04:59;;;;;;;19.98;2.00;;;6.60;99.90;;;;;;5112146;28;20054;-85
2024/01/23 02:07:25;;;;;;;21.50;2.97;;;7.00;99.90;;;;;;5112008;28;20048;-89
2024/01/23 02:09:51;;;;;;;21.30;2.90;;;6.60;99.90;;;;;;5111595;28;20043;-86
2024/01/23 02:12:17;;;;;;;19.10;2.88;;;5.90;99.90;;;;;;5113868;28;20079;-85
2024/01/23 02:14:43;;;;;;;23.83;2.83;;;5.30;99.90;;;;;;5116867;28;20040;-86
2024/01/23 02:17:08;;;;;;;28.70;3.55;;;5.30;99.90;;;;;;5116166;28;20044;-86
2024/01/23 02:19:34;;;;;;;17.58;3.40;;;6.50;99.90;;;;;;5098683;28;20511;-86
2024/01/23 02:22:00;;;;;;;29.33;3.75;;;6.50;99.90;;;;;;5117260;28;20036;-86
2024/01/23 02:24:25;;;;;;;16.05;3.47;;;6.10;99.90;;;;;;5117004;28;20051;-86
2024/01/23 02:26:51;;;;;;;20.02;3.15;;;6.00;99.90;;;;;;5114999;28;20067;-87
2024/01/23 02:29:17;;;;;;;22.70;3.00;;;6.20;99.90;;;;;;5116886;27;20058;-86
2024/01/23 02:31:43;;;;;;;29.88;3.22;;;5.30;99.90;;;;;;5116148;28;20044;-85
2024/01/23 02:34:09;;;;;;;26.73;3.25;;;6.80;99.90;;;;;;5115845;28;20486;-85
2024/01/23 02:36:39;;;;;;;19.33;3.10;;;6.40;99.90;;;;;;5116055;28;20082;-87
2024/01/23 02:39:06;;;;;;;22.50;3.05;;;5.00;99.90;;;;;;5115584;28;20048;-85
2024/01/23 02:41:32;;;;;;;24.27;2.90;;;5.50;99.90;;;;;;5115274;28;20044;-85
2024/01/23 02:43:57;;;;;;;22.90;3.08;;;6.60;99.90;;;;;;5115606;28;20123;-87
2024/01/23 02:46:23;;;;;;;25.92;3.22;;;6.10;99.90;;;;;;5116903;28;20055;-85
2024/01/23 02:48:49;;;;;;;24.45;3.97;;;5.70;99.90;;;;;;5116832;28;20043;-84
2024/01/23 02:51:19;;;;;;;34.35;3.45;;;7.10;99.90;;;;;;5116802;28;20039;-86
2024/01/23 02:53:45;;;;;;;15.50;3.15;;;6.70;99.90;;;;;;5117479;28;20103;-85
2024/01/23 02:56:11;;;;;;;22.58;3.90;;;6.90;99.90;;;;;;5117598;28;20491;-86
2024/01/23 02:58:40;;;;;;;24.42;3.40;;;7.30;99.90;;;;;;5115674;28;20058;-85
2024/01/23 03:01:06;;;;;;;21.98;2.80;;;6.20;99.90;;;;;;5116885;28;20145;-89
2024/01/23 03:03:31;;;;;;;22.88;3.45;;;7.00;99.90;;;;;;5115547;28;20476;-85
2024/01/23 03:05:57;;;;;;;27.17;4.95;;;4.40;99.90;;;;;;5098481;28;20407;-85
2024/01/23 03:08:23;;;;;;;23.05;3.80;;;6.80;99.90;;;;;;5114942;28;20071;-85
2024/01/23 03:10:49;;;;;;;33.40;5.28;;;6.90;99.90;;;;;;5098081;28;20044;-84
2024/01/23 03:13:15;;;;;;;26.85;3.60;;;7.00;99.90;;;;;;5098200;28;20050;-85
2024/01/23 03:15:41;;;;;;;20.70;3.72;;;5.70;99.90;;;;;;5116305;28;20466;-85
2024/01/23 03:18:07;;;;;;;26.00;4.03;;;6.70;99.90;;;;;;5116322;28;20043;-85
2024/01/23 03:20:33;;;;;;;26.20;4.28;;;7.30;99.90;;;;;;5114837;28;20458;-85
2024/01/23 03:22:59;;;;;;;29.58;4.10;;;7.40;99.90;;;;;;5113486;28;20071;-85
2024/01/23 03:25:25;;;;;;;29.92;3.95;;;6.00;99.90;;;;;;5114320;28;20046;-85
2024/01/23 03:27:51;;;;;;;18.73;3.05;;;5.40;99.90;;;;;;5115582;28;20052;-85
2024/01/23 03:30:27;;;;;;;27.50;3.53;;;7.60;99.90;;;;;;5115715;28;20406;-86
2024/01/23 03:32:53;;;;;;;29.88;4.05;;;5.80;99.90;;;;;;5115014;28;20043;-85
2024/01/23 03:35:19;;;;;;;30.33;4.30;;;6.60;99.90;;;;;;5114537;28;20044;-85
2024/01/23 03:37:45;;;;;;;31.48;4.30;;;7.20;99.90;;;;;;5115993;28;20043;-85
2024/01/23 03:40:11;;;;;;;31.15;4.72;;;7.50;99.90;;;;;;5115059;28;20036;-86
2024/01/23 03:42:37;;;;;;;28.27;4.07;;;6.00;99.90;;;;;;5114423;28;20051;-85
2024/01/23 03:45:03;;;;;;;24.75;4.05;;;6.00;99.90;;;;;;5097908;28;20042;-87
2024/01/23 03:47:28;;;;;;;32.80;4.10;;;6.00;99.90;;;;;;5097136;28;20480;-86
2024/01/23 03:49:54;;;;;;;31.10;4.78;;;6.40;99.90;;;;;;5114644;28;20119;-85
2024/01/23 03:52:22;;;;;;;28.65;4.05;;;7.60;99.90;;;;;;5097561;28;20047;-84
2024/01/23 03:54:48;;;;;;;32.72;4.40;;;6.90;99.90;;;;;;5115485;28;20065;-85
2024/01/23 03:57:14;;;;;;;26.58;4.20;;;7.40;99.90;;;;;;5113982;28;20054;-85
2024/01/23 03:59:43;;;;;;;23.35;3.97;;;7.10;99.90;;;;;;5113936;28;20396;-86
2024/01/23 04:02:08;;;;;;;24.67;3.60;;;6.90;99.90;;;;;;5114099;28;20047;-85
2024/01/23 04:04:34;;;;;;;19.48;4.90;;;6.60;99.90;;;;;;5115473;28;20390;-88
2024/01/23 04:07:00;;;;;;;32.05;5.40;;;7.50;99.90;;;;;;5114087;28;20078;-85
2024/01/23 04:09:28;;;;;;;22.95;4.53;;;6.80;99.90;;;;;;5113928;28;20480;-86
2024/01/23 04:11:54;;;;;;;29.10;4.72;;;7.90;99.90;;;;;;5113936;28;20055;-86
2024/01/23 04:14:20;;;;;;;29.17;4.43;;;6.20;99.90;;;;;;5096577;28;20044;-87
2024/01/23 04:16:46;;;;;;;30.83;4.20;;;7.70;99.90;;;;;;5115150;28;20044;-87
2024/01/23 04:19:12;;;;;;;23.48;4.20;;;7.20;99.90;;;;;;5114931;28;20151;-87
2024/01/23 04:21:38;;;;;;;36.78;4.45;;;7.50;99.90;;;;;;5113622;28;20036;-87
2024/01/23 04:24:04;;;;;;;39.20;4.22;;;7.60;99.90;;;;;;5114174;28;20055;-89
2024/01/23 04:26:29;;;;;;;43.70;5.90;;;6.30;99.90;;;;;;5113604;28;20169;-86
2024/01/23 04:28:56;;;;;;;25.75;5.00;;;6.70;99.90;;;;;;5113899;28;20055;-86
2024/01/23 04:31:22;;;;;;;27.75;4.25;;;6.70;99.90;;;;;;5113408;28;20392;-85
2024/01/23 04:33:49;;;;;;;21.25;3.97;;;7.20;99.90;;;;;;5113163;28;20039;-85
2024/01/23 04:36:15;;;;;;;36.25;5.22;;;7.30;99.90;;;;;;5113112;28;20054;-85
2024/01/23 04:38:41;;;;;;;33.30;5.10;;;7.00;99.90;;;;;;5114812;28;20047;-86
2024/01/23 04:41:07;;;;;;;31.13;4.65;;;6.80;99.90;;;;;;5114647;28;20054;-87
2024/01/23 04:43:33;;;;;;;28.42;5.13;;;7.30;99.90;;;;;;5114683;28;20035;-87
2024/01/23 04:45:59;;;;;;;33.08;4.85;;;7.70;99.90;;;;;;5113733;28;20434;-87
2024/01/23 04:48:25;;;;;;;30.33;4.47;;;7.50;99.90;;;;;;5112357;28;20036;-85
2024/01/23 04:50:51;;;;;;;30.25;4.32;;;7.70;99.90;;;;;;5113471;28;20071;-86
2024/01/23 04:53:17;;;;;;;31.67;4.97;;;7.40;99.90;;;;;;5114371;28;20078;-85
2024/01/23 04:55:42;;;;;;;38.33;5.68;;;7.10;99.90;;;;;;5113026;28;20050;-84
2024/01/23 04:58:08;;;;;;;45.40;6.70;;;8.00;99.90;;;;;;5112919;28;20036;-86
2024/01/23 05:00:33;;;;;;;35.75;4.65;;;7.40;99.90;;;;;;5096032;28;20183;-86
2024/01/23 05:02:59;;;;;;;31.40;4.40;;;8.10;99.90;;;;;;5096146;28;20082;-85
2024/01/23 05:05:25;;;;;;;27.38;4.05;;;7.50;99.90;;;;;;5113947;28;20040;-85
2024/01/23 05:07:51;;;;;;;36.08;4.70;;;7.30;99.90;;;;;;5095556;28;20043;-86
2024/01/23 05:10:16;;;;;;;25.73;5.32;;;7.20;99.90;;;;;;5114064;28;20063;-85
2024/01/23 05:12:42;;;;;;;26.70;4.03;;;7.40;99.90;;;;;;5113057;28;20047;-86
2024/01/23 05:15:08;;;;;;;32.00;5.28;;;7.10;99.90;;;;;;5113933;28;20040;-85
2024/01/23 05:17:34;;;;;;;32.13;5.55;;;6.50;99.90;;;;;;5112691;28;20050;-86
2024/01/23 05:19:59;;;;;;;32.15;5.13;;;6.20;99.90;;;;;;5114017;28;20047;-85
2024/01/23 05:22:25;;;;;;;32.80;4.18;;;6.50;99.90;;;;;;5113218;28;20075;-84
2024/01/23 05:24:51;;;;;;;33.03;4.20;;;7.10;99.90;;;;;;5113691;28;20044;-86
2024/01/23 05:27:16;;;;;;;39.35;5.25;;;6.60;99.90;;;;;;5113540;28;20043;-87
2024/01/23 05:29:42;;;;;;;35.15;5.20;;;6.50;99.90;;;;;;5113676;28;20086;-85
2024/01/23 05:32:08;;;;;;;38.78;5.68;;;6.50;99.90;;;;;;5113848;28;20047;-85
2024/01/23 05:34:34;;;;;;;38.97;5.13;;;6.50;99.90;;;;;;5112304;28;20040;-85
2024/01/23 05:37:00;;;;;;;30.05;4.82;;;7.30;99.90;;;;;;5113810;28;20102;-85
2024/01/23 05:39:26;;;;;;;37.08;4.95;;;7.80;99.90;;;;;;5112051;28;20135;-85
2024/01/23 05:41:52;;;;;;;35.20;5.45;;;7.20;99.90;;;;;;5112260;28;20093;-84
2024/01/23 05:44:18;;;;;;;36.35;5.78;;;6.30;99.90;;;;;;5113347;28;20071;-85
2024/01/23 05:46:44;;;;;;;32.03;4.88;;;7.60;99.90;;;;;;5112104;28;20032;-86
2024/01/23 05:49:10;;;;;;;30.35;5.22;;;7.40;99.90;;;;;;5116370;28;20040;-86
2024/01/23 05:51:35;;;;;;;33.00;5.95;;;6.20;99.90;;;;;;5117929;28;20046;-85
2024/01/23 05:54:01;;;;;;;39.92;5.10;;;6.30;99.90;;;;;;5116268;28;20035;-86
2024/01/23 05:56:27;;;;;;;28.42;4.57;;;6.10;99.90;;;;;;5117373;28;20039;-85
2024/01/23 05:58:52;;;;;;;39.28;6.32;;;7.60;99.90;;;;;;5099851;28;20043;-84
2024/01/23 06:01:18;;;;;;;44.50;5.15;;;6.20;99.90;;;;;;5116126;28;20404;-85
2024/01/23 06:03:43;;;;;;;32.38;6.13;;;5.90;99.90;;;;;;5117489;28;20079;-84
2024/01/23 06:06:09;;;;;;;36.92;5.50;;;6.70;99.90;;;;;;5098954;28;20504;-85
2024/01/23 06:08:35;;;;;;;39.20;5.75;;;6.40;99.90;;;;;;5115546;28;20144;-85
2024/01/23 06:11:00;;;;;;;42.17;5.65;;;6.90;99.90;;;;;;5116045;28;20054;-85
2024/01/23 06:13:26;;;;;;;39.10;4.93;;;5.80;99.90;;;;;;5116041;28;20036;-84
2024/01/23 06:15:52;;;;;;;40.38;5.85;;;7.00;99.90;;;;;;5098434;28;20075;-85
2024/01/23 06:18:17;;;;;;;37.10;5.07;;;5.70;99.90;;;;;;5115977;28;20396;-85
2024/01/23 06:20:43;;;;;;;36.38;5.65;;;6.70;99.90;;;;;;5116208;28;20047;-84
2024/01/23 06:23:09;;;;;;;40.22;5.90;;;5.50;99.90;;;;;;5115945;28;20081;-85
2024/01/23 06:25:35;;;;;;;42.13;7.78;;;6.50;99.90;;;;;;5117237;28;20036;-84
2024/01/23 06:28:00;;;;;;;35.70;5.72;;;6.00;99.90;;;;;;5098597;28;20447;-84
2024/01/23 06:30:26;;;;;;;39.67;6.07;;;7.10;99.90;;;;;;5115783;28;20126;-85
2024/01/23 06:32:52;;;;;;;31.75;5.47;;;6.60;99.90;;;;;;5115684;28;20130;-85
2024/01/23 06:35:18;;;;;;;36.20;7.22;;;5.60;99.90;;;;;;5115659;28;20131;-84
2024/01/23 06:37:43;;;;;;;32.80;5.03;;;5.50;99.90;;;;;;5116786;28;20047;-85
2024/01/23 06:40:10;;;;;;;40.55;6.25;;;5.90;99.90;;;;;;5116898;28;20037;-85
2024/01/23 06:42:36;;;;;;;44.60;6.15;;;5.50;99.90;;;;;;5098550;28;20130;-85
2024/01/23 06:45:02;;;;;;;36.65;7.10;;;7.30;99.90;;;;;;5098413;28;20135;-84
2024/01/23 06:47:28;;;;;;;34.75;6.07;;;5.40;99.90;;;;;;5098397;28;20044;-84
2024/01/23 06:49:53;;;;;;;40.58;6.80;;;6.10;99.90;;;;;;5116531;27;20100;-87
2024/01/23 06:52:19;;;;;;;32.13;6.72;;;6.00;99.90;;;;;;5115366;28;20054;-84
2024/01/23 06:54:45;;;;;;;42.67;7.10;;;5.40;99.90;;;;;;5098340;28;20510;-84
2024/01/23 06:57:12;;;;;;;44.30;6.13;;;5.40;99.90;;;;;;5115091;28;20047;-84
2024/01/23 06:59:38;;;;;;;32.88;6.68;;;5.30;99.90;;;;;;5097939;28;20075;-83
2024/01/23 07:02:07;;;;;;;41.25;5.45;;;6.40;99.90;;;;;;5115246;28;20432;-84
2024/01/23 07:04:32;;;;;;;36.05;5.82;;;5.50;99.90;;;;;;5115105;28;20075;-90
2024/01/23 07:06:58;;;;;;;48.05;7.13;;;5.30;99.90;;;;;;5098015;28;20075;-84
2024/01/23 07:09:24;;;;;;;40.17;6.20;;;5.90;99.90;;;;;;5114552;28;20602;-86
2024/01/23 07:11:53;;;;;;;35.63;6.40;;;6.20;99.90;;;;;;5115391;28;20086;-84
2024/01/23 07:14:18;;;;;;;40.78;5.38;;;6.10;99.90;;;;;;5114907;28;20131;-84
2024/01/23 07:16:44;;;;;;;42.58;6.40;;;6.70;99.90;;;;;;5116005;27;20126;-84
2024/01/23 07:19:10;;;;;;;54.85;8.30;;;6.20;99.90;;;;;;5115794;28;20560;-84
2024/01/23 07:21:36;;;;;;;48.40;5.95;;;5.50;99.90;;;;;;5116244;28;20122;-85
2024/01/23 07:24:02;;;;;;;36.10;5.50;;;6.70;99.90;;;;;;5114721;28;20036;-85
2024/01/23 07:26:28;;;;;;;42.20;6.95;;;5.10;99.90;;;;;;5114160;28;20043;-84
2024/01/23 07:28:54;;;;;;;33.20;6.15;;;5.30;99.90;;;;;;5114260;28;20043;-86
2024/01/23 07:31:19;;;;;;;37.53;6.78;;;5.80;99.90;;;;;;5116066;28;20420;-85
2024/01/23 07:33:45;;;;;;;40.20;6.78;;;6.20;99.90;;;;;;5115861;28;20116;-87
2024/01/23 07:36:11;;;;;;;33.85;6.07;;;5.10;99.90;;;;;;5115782;28;20043;-84
2024/01/23 07:38:36;;;;;;;48.72;7.03;;;5.10;99.90;;;;;;5114581;28;20062;-86
2024/01/23 07:41:02;;;;;;;41.90;6.03;;;6.60;99.90;;;;;;5129057;27;20126;-85
2024/01/23 07:43:28;;;;;;;38.10;5.88;;;5.00;99.90;;;;;;5115598;28;20028;-89
2024/01/23 07:45:54;;;;;;;50.60;6.28;;;5.40;99.90;;;;;;5115129;27;20505;-85
2024/01/23 07:48:20;;;;;;;48.15;7.35;;;5.60;99.90;;;;;;5114288;28;20047;-87
2024/01/23 07:50:46;;;;;;;46.35;6.63;;;6.40;99.90;;;;;;5096969;28;20120;-86
2024/01/23 07:53:12;;;;;;;39.50;5.82;;;6.20;99.90;;;;;;5115685;28;20074;-86
2024/01/23 07:55:37;;;;;;;41.08;6.45;;;6.90;99.90;;;;;;5113883;28;20126;-85
2024/01/23 07:58:03;;;;;;;41.58;5.95;;;5.60;99.90;;;;;;5115021;28;20130;-85
2024/01/23 08:00:29;;;;;;;39.83;6.30;;;6.10;99.90;;;;;;5114197;28;20434;-84
2024/01/23 08:02:55;;;;;;;38.42;6.65;;;6.30;99.90;;;;;;5115082;28;20480;-85
2024/01/23 08:05:22;;;;;;;41.85;7.10;;;5.40;99.90;;;;;;5114222;28;20047;-86
2024/01/23 08:07:48;;;;;;;32.05;5.57;;;6.50;99.90;;;;;;5114000;28;20134;-84
2024/01/23 08:10:14;;;;;;;28.10;5.60;;;6.00;99.90;;;;;;5113180;28;20043;-85
2024/01/23 08:12:40;;;;;;;47.78;6.22;;;5.00;99.90;;;;;;5115058;28;20173;-85
2024/01/23 08:15:07;;;;;;;41.22;7.20;;;5.70;99.90;;;;;;5097094;28;20123;-86
2024/01/23 08:17:33;;;;;;;36.42;5.65;;;5.10;99.90;;;;;;5114768;28;20046;-86
2024/01/23 08:19:58;;;;;;;42.15;5.53;;;6.50;99.90;;;;;;5114783;27;20031;-89
2024/01/23 08:22:24;;;;;;;38.80;6.82;;;6.40;99.90;;;;;;5113697;28;20476;-86
2024/01/23 08:24:51;;;;;;;44.20;6.55;;;6.40;99.90;;;;;;5114874;28;20039;-86
2024/01/23 08:27:17;;;;;;;34.55;5.20;;;6.10;99.90;;;;;;5113131;28;20060;-85
2024/01/23 08:29:44;;;;;;;41.90;5.82;;;5.30;99.90;;;;;;5096736;28;20416;-85
2024/01/23 08:32:10;;;;;;;33.55;5.60;;;6.50;99.90;;;;;;5113347;28;20047;-85
2024/01/23 08:34:36;;;;;;;38.03;6.25;;;4.90;99.90;;;;;;5113675;28;20381;-86
2024/01/23 08:37:02;;;;;;;39.08;5.38;;;6.40;99.90;;;;;;5113266;28;20050;-85
2024/01/23 08:39:28;;;;;;;47.08;6.22;;;5.10;99.90;;;;;;5114705;28;20043;-85
2024/01/23 08:41:53;;;;;;;51.22;6.80;;;6.20;99.90;;;;;;5113423;28;20047;-86
2024/01/23 08:44:21;;;;;;;38.67;6.15;;;5.90;99.90;;;;;;5115904;28;20142;-85
2024/01/23 08:46:47;;;;;;;47.60;6.93;;;6.40;99.90;;;;;;5117576;28;20047;-85
2024/01/23 08:49:12;;;;;;;47.78;5.95;;;5.50;99.90;;;;;;5115809;28;20047;-85
2024/01/23 08:51:38;;;;;;;33.92;5.35;;;6.30;99.90;;;;;;5114824;28;20040;-85
2024/01/23 08:54:04;;;;;;;43.28;6.45;;;6.50;99.90;;;;;;5113270;28;20136;-86
2024/01/23 08:56:30;;;;;;;33.13;5.93;;;5.30;99.90;;;;;;5112913;28;20503;-87
2024/01/23 08:58:56;;;;;;;38.47;5.97;;;6.00;99.90;;;;;;5112908;28;20499;-86
2024/01/23 09:01:21;;;;;;;41.85;6.72;;;5.70;99.90;;;;;;5113216;28;20028;-86
2024/01/23 09:03:47;;;;;;;52.55;6.07;;;5.70;99.90;;;;;;5112939;28;20039;-86
2024/01/23 09:06:12;;;;;;;38.75;5.72;;;5.60;99.90;;;;;;5095865;28;20054;-86
2024/01/23 09:08:42;;;;;;;33.75;5.43;;;6.00;99.90;;;;;;5114404;28;20043;-86
2024/01/23 09:11:08;;;;;;;33.53;5.50;;;6.70;99.90;;;;;;5113884;28;20043;-86
2024/01/23 09:13:34;;;;;;;40.90;6.20;;;6.30;99.90;;;;;;5095667;28;20049;-85
2024/01/23 09:16:00;;;;;;;36.33;6.35;;;6.70;99.90;;;;;;5114054;28;20044;-87
2024/01/23 09:18:28;;;;;;;41.97;6.25;;;6.40;99.90;;;;;;5095872;28;20050;-86
2024/01/23 09:20:54;;;;;;;41.15;6.22;;;4.40;99.90;;;;;;5112802;28;20130;-85
2024/01/23 09:23:19;;;;;;;41.78;6.85;;;6.20;99.90;;;;;;5114096;28;20141;-88
2024/01/23 09:25:45;;;;;;;48.35;6.63;;;5.70;99.90;;;;;;5113749;28;20096;-87
2024/01/23 09:28:11;;;;;;;42.38;7.05;;;5.90;99.90;;;;;;5095391;28;20048;-86
2024/01/23 09:30:37;;;;;;;34.83;5.75;;;6.20;99.90;;;;;;5095772;28;20040;-85
2024/01/23 09:33:03;;;;;;;34.22;5.22;;;7.20;99.90;;;;;;5095617;28;20403;-87
2024/01/23 09:35:30;;;;;;;39.13;5.57;;;5.80;99.90;;;;;;5112685;28;20130;-84
2024/01/23 09:37:56;;;;;;;42.28;5.60;;;5.90;99.90;;;;;;5095450;28;20043;-86
2024/01/23 09:40:22;;;;;;;35.15;5.45;;;6.10;99.90;;;;;;5095753;28;20131;-86
2024/01/23 09:42:48;;;;;;;45.85;6.10;;;5.90;99.90;;;;;;5095424;28;20480;-86
2024/01/23 09:45:18;;;;;;;34.55;5.80;;;6.60;99.90;;;;;;5112378;28;20046;-86
2024/01/23 09:47:49;;;;;;;43.03;6.07;;;6.80;99.90;;;;;;5095594;28;20434;-86
2024/01/23 09:50:20;;;;;;;35.92;6.10;;;6.40;99.90;;;;;;5113625;28;20035;-86
2024/01/23 09:52:47;;;;;;;39.20;6.05;;;6.90;99.90;;;;;;5113590;28;20075;-85
2024/01/23 09:55:13;;;;;;;49.78;7.03;;;6.90;99.90;;;;;;5113772;28;20424;-85
2024/01/23 09:57:39;;;;;;;48.63;5.68;;;6.20;99.90;;;;;;5112209;28;20042;-85
2024/01/23 10:00:07;;;;;;;34.97;5.88;;;7.50;99.90;;;;;;5113371;28;20053;-85
2024/01/23 10:02:35;;;;;;;43.30;5.57;;;6.30;99.90;;;;;;5095515;28;20036;-86
2024/01/23 10:05:02;;;;;;;39.30;6.15;;;6.30;99.90;;;;;;5112224;28;20104;-85
2024/01/23 10:07:28;;;;;;;35.00;5.95;;;6.30;99.90;;;;;;5113334;28;20123;-85
2024/01/23 10:09:59;;;;;;;40.22;5.60;;;7.20;99.90;;;;;;5113513;28;20079;-86
2024/01/23 10:12:24;;;;;;;28.73;5.22;;;6.50;99.90;;;;;;5112367;28;20069;-86
2024/01/23 10:14:50;;;;;;;37.28;6.03;;;7.10;99.90;;;;;;5113417;28;20126;-86
2024/01/23 10:17:16;;;;;;;45.85;6.22;;;6.70;99.90;;;;;;5113227;28;20031;-86
2024/01/23 10:19:42;;;;;;;35.53;4.65;;;7.10;99.90;;;;;;5113355;28;20039;-85
2024/01/23 10:22:08;;;;;;;41.30;6.22;;;7.10;99.90;;;;;;5113554;28;20072;-86
2024/01/23 10:24:33;;;;;;;33.33;4.47;;;6.90;99.90;;;;;;5113690;28;20047;-86
2024/01/23 10:26:59;;;;;;;44.47;6.30;;;6.70;99.90;;;;;;5094975;28;20058;-85
2024/01/23 10:29:25;;;;;;;41.95;5.80;;;7.50;99.90;;;;;;5113488;28;20061;-86
2024/01/23 10:31:51;;;;;;;57.03;6.88;;;7.00;99.90;;;;;;5112231;28;20385;-85
2024/01/23 10:34:17;;;;;;;41.25;6.60;;;7.80;99.90;;;;;;5097490;28;20054;-85
2024/01/23 10:36:42;;;;;;;40.15;6.30;;;8.00;99.90;;;;;;5116593;28;20087;-86
2024/01/23 10:39:10;;;;;;;35.05;5.55;;;7.70;99.90;;;;;;5100253;28;20042;-87
2024/01/23 10:41:37;;;;;;;40.80;6.78;;;7.90;99.90;;;;;;5119085;28;20055;-86
2024/01/23 10:44:04;;;;;;;30.60;5.78;;;8.10;99.90;;;;;;5115724;28;20064;-86
2024/01/23 10:46:30;;;;;;;45.22;6.80;;;7.10;99.90;;;;;;5115533;28;20082;-87
2024/01/23 10:48:56;;;;;;;36.53;6.60;;;8.10;99.90;;;;;;5098830;28;20442;-88
2024/01/23 10:51:28;;;;;;;47.22;6.63;;;7.80;99.90;;;;;;5116940;28;20044;-86
2024/01/23 10:54:01;;;;;;;29.38;5.30;;;8.10;99.90;;;;;;5116639;28;20522;-85
2024/01/23 10:56:41;;;;;;;44.70;5.95;;;8.40;99.90;;;;;;5116643;28;20115;-85
2024/01/23 10:59:17;;;;;;;40.38;5.22;;;7.60;99.90;;;;;;5115977;28;20052;-85
2024/01/23 11:01:48;;;;;;;31.85;5.57;;;7.40;99.90;;;;;;5116559;28;20118;-84
2024/01/23 11:04:15;;;;;;;30.15;5.07;;;8.40;99.90;;;;;;5115336;28;20044;-84
2024/01/23 11:07:20;;;;;;;43.35;6.18;;;7.50;99.90;;;;;;5115142;28;20040;-85
2024/01/23 11:09:52;;;;;;;33.83;6.35;;;7.60;99.90;;;;;;5116080;28;20043;-84
2024/01/23 11:12:55;;;;;;;39.78;7.13;;;8.70;99.90;;;;;;5115394;28;20388;-84
2024/01/23 11:15:21;;;;;;;37.20;5.45;;;7.70;99.90;;;;;;5017110;28;20057;-84
2024/01/23 11:17:47;;;;;;;44.17;5.97;;;8.20;99.90;;;;;;5033541;28;20049;-85
2024/01/23 11:20:16;;;;;;;28.48;4.80;;;7.70;99.90;;;;;;5017040;28;20053;-85
2024/01/23 11:22:42;;;;;;;43.22;6.15;;;7.80;99.90;;;;;;5017055;28;20398;-86
2024/01/23 11:25:11;;;;;;;40.75;5.95;;;7.90;99.90;;;;;;5016985;28;20358;-84
2024/01/23 11:27:39;;;;;;;35.78;5.88;;;9.10;99.90;;;;;;5016496;28;20061;-86
2024/01/23 11:30:10;;;;;;;41.10;5.63;;;8.00;99.90;;;;;;5016847;28;20509;-85
2024/01/23 11:32:36;;;;;;;35.83;5.60;;;7.80;99.90;;;;;;5033487;28;20057;-84
2024/01/23 11:35:11;;;;;;;38.65;5.50;;;8.30;99.90;;;;;;5016440;28;20046;-86
2024/01/23 11:37:45;;;;;;;47.30;6.53;;;8.00;99.90;;;;;;5000198;28;20128;-86
2024/01/23 11:40:30;;;;;;;34.15;5.85;;;8.80;99.90;;;;;;5000180;28;20308;-86
2024/01/23 11:42:58;;;;;;;30.58;4.80;;;8.80;99.90;;;;;;5016728;28;20042;-84
2024/01/23 11:45:28;;;;;;;38.33;6.10;;;9.40;99.90;;;;;;5015006;28;20072;-84
2024/01/23 11:48:20;;;;;;;38.95;6.05;;;8.10;99.90;;;;;;5016295;28;20102;-85
2024/01/23 11:50:46;;;;;;;32.65;4.88;;;8.10;99.90;;;;;;5014763;28;20049;-84
2024/01/23 11:53:13;;;;;;;31.75;5.13;;;9.00;99.90;;;;;;5115237;28;20400;-84
2024/01/23 11:55:39;;;;;;;41.08;6.30;;;8.10;99.90;;;;;;5115558;28;20122;-84
2024/01/23 11:58:05;;;;;;;31.52;5.38;;;8.30;99.90;;;;;;5097271;28;20078;-85
2024/01/23 12:00:30;;;;;;;35.42;4.75;;;8.30;99.90;;;;;;5113851;28;20051;-84
2024/01/23 12:02:57;;;;;;;30.83;4.97;;;9.60;99.90;;;;;;5097086;28;20442;-84
2024/01/23 12:05:23;;;;;;;34.20;4.55;;;8.60;99.90;;;;;;5113542;28;20047;-84
2024/01/23 12:07:50;;;;;;;32.92;5.10;;;9.40;99.90;;;;;;5097156;28;20073;-84
2024/01/23 12:10:17;;;;;;;32.95;4.57;;;8.10;99.90;;;;;;5112739;27;20044;-84
2024/01/23 12:12:43;;;;;;;25.13;5.18;;;8.10;99.90;;;;;;5113247;28;20051;-84
2024/01/23 12:15:09;;;;;;;32.60;4.07;;;8.40;99.90;;;;;;5113605;28;20035;-86
2024/01/23 12:17:36;;;;;;;39.47;6.00;;;8.10;99.90;;;;;;5114474;27;20123;-85
2024/01/23 12:20:09;;;;;;;18.98;4.35;;;8.70;99.90;;;;;;5114896;28;20395;-84
2024/01/23 12:22:39;;;;;;;33.97;5.55;;;8.20;99.90;;;;;;5113576;28;20043;-85
2024/01/23 12:25:06;;;;;;;32.13;4.65;;;9.40;99.90;;;;;;5113395;28;20051;-85
2024/01/23 12:27:32;;;;;;;34.30;4.72;;;8.30;99.90;;;;;;5113002;28;20135;-85
2024/01/23 12:30:02;;;;;;;33.15;4.30;;;9.20;99.90;;;;;;5113425;28;20476;-85
2024/01/23 12:32:29;;;;;;;23.10;4.00;;;8.20;99.90;;;;;;5113522;28;20044;-85
2024/01/23 12:34:58;;;;;;;30.80;4.20;;;9.00;99.90;;;;;;5114654;27;20048;-84
2024/01/23 12:37:28;;;;;;;33.45;4.70;;;7.70;99.90;;;;;;5096468;28;20108;-84
2024/01/23 12:39:54;;;;;;;33.22;6.80;;;8.30;99.90;;;;;;5113453;28;20135;-85
2024/01/23 12:42:20;;;;;;;23.77;4.25;;;9.30;99.90;;;;;;5095830;28;20077;-84
2024/01/23 12:44:46;;;;;;;31.85;4.55;;;8.90;99.90;;;;;;5112973;28;20122;-88